sensor_id;sensor_type;location;lat;lon;timestamp;P1;durP1;ratioP1;P2;durP2;ratioP2
21917;SDS011;11123;49.882;8.662;2022-07-23T00:01:14;5.53;;;3.78;;
21917;SDS011;11123;49.882;8.662;2022-07-23T00:03:50;10.38;;;3.90;;
21917;SDS011;11123;49.882;8.662;2022-07-23T00:06:20;7.13;;;3.83;;
21917;SDS011;11123;49.882;8.662;2022-07-23T00:08:49;5.57;;;3.58;;
21917;SDS011;11123;49.882;8.662;2022-07-23T00:11:18;7.18;;;4.00;;
21917;SDS011;11123;49.882;8.662;2022-07-23T00:13:48;8.07;;;4.10;;
21917;SDS011;11123;49.882;8.662;2022-07-23T00:16:16;5.93;;;4.35;;
21917;SDS011;11123;49.882;8.662;2022-07-23T00:18:45;5.88;;;4.03;;
21917;SDS011;11123;49.882;8.662;2022-07-23T00:21:14;5.53;;;3.88;;
21917;SDS011;11123;49.882;8.662;2022-07-23T00:23:42;7.18;;;3.85;;
21917;SDS011;11123;49.882;8.662;2022-07-23T00:26:11;5.22;;;3.88;;
21917;SDS011;11123;49.882;8.662;2022-07-23T00:28:39;8.68;;;4.20;;
21917;SDS011;11123;49.882;8.662;2022-07-23T00:31:07;5.80;;;3.90;;
21917;SDS011;11123;49.882;8.662;2022-07-23T00:33:35;7.07;;;3.80;;
21917;SDS011;11123;49.882;8.662;2022-07-23T00:36:04;4.97;;;3.70;;
21917;SDS011;11123;49.882;8.662;2022-07-23T00:38:34;6.60;;;4.03;;
21917;SDS011;11123;49.882;8.662;2022-07-23T00:41:02;6.53;;;3.83;;
21917;SDS011;11123;49.882;8.662;2022-07-23T00:43:30;7.45;;;3.80;;
21917;SDS011;11123;49.882;8.662;2022-07-23T00:45:58;7.10;;;4.35;;
21917;SDS011;11123;49.882;8.662;2022-07-23T00:48:28;6.38;;;3.75;;
21917;SDS011;11123;49.882;8.662;2022-07-23T00:50:56;7.97;;;4.65;;
21917;SDS011;11123;49.882;8.662;2022-07-23T00:53:24;6.70;;;4.50;;
21917;SDS011;11123;49.882;8.662;2022-07-23T00:55:54;6.03;;;3.97;;
21917;SDS011;11123;49.882;8.662;2022-07-23T00:58:22;6.78;;;4.22;;
21917;SDS011;11123;49.882;8.662;2022-07-23T01:00:51;9.02;;;3.90;;
21917;SDS011;11123;49.882;8.662;2022-07-23T01:03:19;4.90;;;3.83;;
21917;SDS011;11123;49.882;8.662;2022-07-23T01:05:48;7.60;;;4.18;;
21917;SDS011;11123;49.882;8.662;2022-07-23T01:08:16;6.60;;;4.40;;
21917;SDS011;11123;49.882;8.662;2022-07-23T01:10:48;8.48;;;4.20;;
21917;SDS011;11123;49.882;8.662;2022-07-23T01:13:19;6.57;;;4.60;;
21917;SDS011;11123;49.882;8.662;2022-07-23T01:15:47;5.25;;;3.92;;
21917;SDS011;11123;49.882;8.662;2022-07-23T01:18:15;7.35;;;4.55;;
21917;SDS011;11123;49.882;8.662;2022-07-23T01:20:44;7.85;;;3.97;;
21917;SDS011;11123;49.882;8.662;2022-07-23T01:23:13;6.60;;;4.00;;
21917;SDS011;11123;49.882;8.662;2022-07-23T01:25:48;6.22;;;4.07;;
21917;SDS011;11123;49.882;8.662;2022-07-23T01:28:17;10.10;;;4.40;;
21917;SDS011;11123;49.882;8.662;2022-07-23T01:30:45;7.55;;;4.53;;
21917;SDS011;11123;49.882;8.662;2022-07-23T01:33:15;7.85;;;4.53;;
21917;SDS011;11123;49.882;8.662;2022-07-23T01:35:43;6.47;;;4.68;;
21917;SDS011;11123;49.882;8.662;2022-07-23T01:38:18;9.80;;;4.93;;
21917;SDS011;11123;49.882;8.662;2022-07-23T01:40:46;7.95;;;4.40;;
21917;SDS011;11123;49.882;8.662;2022-07-23T01:43:22;9.68;;;4.75;;
21917;SDS011;11123;49.882;8.662;2022-07-23T01:45:53;11.55;;;4.55;;
21917;SDS011;11123;49.882;8.662;2022-07-23T01:48:24;6.25;;;4.53;;
21917;SDS011;11123;49.882;8.662;2022-07-23T01:51:17;8.10;;;4.50;;
21917;SDS011;11123;49.882;8.662;2022-07-23T01:53:55;10.20;;;4.63;;
21917;SDS011;11123;49.882;8.662;2022-07-23T01:56:24;10.38;;;4.82;;
21917;SDS011;11123;49.882;8.662;2022-07-23T01:58:52;6.82;;;4.60;;
21917;SDS011;11123;49.882;8.662;2022-07-23T02:01:21;7.75;;;4.78;;
21917;SDS011;11123;49.882;8.662;2022-07-23T02:03:50;6.90;;;4.82;;
21917;SDS011;11123;49.882;8.662;2022-07-23T02:06:18;7.88;;;4.55;;
21917;SDS011;11123;49.882;8.662;2022-07-23T02:08:47;5.97;;;4.25;;
21917;SDS011;11123;49.882;8.662;2022-07-23T02:11:16;8.27;;;5.10;;
21917;SDS011;11123;49.882;8.662;2022-07-23T02:13:44;7.65;;;4.75;;
21917;SDS011;11123;49.882;8.662;2022-07-23T02:16:12;6.22;;;4.80;;
21917;SDS011;11123;49.882;8.662;2022-07-23T02:18:41;7.93;;;4.90;;
21917;SDS011;11123;49.882;8.662;2022-07-23T02:21:10;7.53;;;4.80;;
21917;SDS011;11123;49.882;8.662;2022-07-23T02:23:38;7.10;;;4.60;;
21917;SDS011;11123;49.882;8.662;2022-07-23T02:26:06;8.07;;;4.32;;
21917;SDS011;11123;49.882;8.662;2022-07-23T02:28:36;6.82;;;4.63;;
21917;SDS011;11123;49.882;8.662;2022-07-23T02:31:06;6.55;;;4.70;;
21917;SDS011;11123;49.882;8.662;2022-07-23T02:33:34;7.85;;;4.40;;
21917;SDS011;11123;49.882;8.662;2022-07-23T02:36:03;6.72;;;4.60;;
21917;SDS011;11123;49.882;8.662;2022-07-23T02:38:31;8.00;;;4.57;;
21917;SDS011;11123;49.882;8.662;2022-07-23T02:41:00;7.38;;;4.93;;
21917;SDS011;11123;49.882;8.662;2022-07-23T02:43:28;8.70;;;4.93;;
21917;SDS011;11123;49.882;8.662;2022-07-23T02:45:58;7.43;;;4.40;;
21917;SDS011;11123;49.882;8.662;2022-07-23T02:48:27;7.00;;;4.28;;
21917;SDS011;11123;49.882;8.662;2022-07-23T02:50:55;7.30;;;4.85;;
21917;SDS011;11123;49.882;8.662;2022-07-23T02:53:29;7.30;;;4.75;;
21917;SDS011;11123;49.882;8.662;2022-07-23T02:55:57;8.80;;;5.25;;
21917;SDS011;11123;49.882;8.662;2022-07-23T02:58:25;7.07;;;4.97;;
21917;SDS011;11123;49.882;8.662;2022-07-23T03:00:54;8.00;;;5.22;;
21917;SDS011;11123;49.882;8.662;2022-07-23T03:03:25;7.90;;;5.40;;
21917;SDS011;11123;49.882;8.662;2022-07-23T03:05:55;9.40;;;5.65;;
21917;SDS011;11123;49.882;8.662;2022-07-23T03:08:24;9.77;;;5.47;;
21917;SDS011;11123;49.882;8.662;2022-07-23T03:10:52;8.23;;;5.38;;
21917;SDS011;11123;49.882;8.662;2022-07-23T03:13:21;10.00;;;5.30;;
21917;SDS011;11123;49.882;8.662;2022-07-23T03:15:49;8.00;;;5.72;;
21917;SDS011;11123;49.882;8.662;2022-07-23T03:18:18;8.38;;;5.10;;
21917;SDS011;11123;49.882;8.662;2022-07-23T03:20:48;9.82;;;4.80;;
21917;SDS011;11123;49.882;8.662;2022-07-23T03:23:16;9.25;;;5.35;;
21917;SDS011;11123;49.882;8.662;2022-07-23T03:25:47;7.38;;;4.82;;
21917;SDS011;11123;49.882;8.662;2022-07-23T03:28:20;6.85;;;5.00;;
21917;SDS011;11123;49.882;8.662;2022-07-23T03:30:48;6.75;;;5.18;;
21917;SDS011;11123;49.882;8.662;2022-07-23T03:33:17;7.97;;;5.25;;
21917;SDS011;11123;49.882;8.662;2022-07-23T03:35:48;10.73;;;4.97;;
21917;SDS011;11123;49.882;8.662;2022-07-23T03:38:21;7.35;;;5.13;;
21917;SDS011;11123;49.882;8.662;2022-07-23T03:40:50;10.80;;;5.07;;
21917;SDS011;11123;49.882;8.662;2022-07-23T03:43:18;6.38;;;4.82;;
21917;SDS011;11123;49.882;8.662;2022-07-23T03:45:46;7.57;;;5.15;;
21917;SDS011;11123;49.882;8.662;2022-07-23T03:48:14;9.20;;;5.32;;
21917;SDS011;11123;49.882;8.662;2022-07-23T03:50:44;10.25;;;5.20;;
21917;SDS011;11123;49.882;8.662;2022-07-23T03:53:13;8.00;;;4.97;;
21917;SDS011;11123;49.882;8.662;2022-07-23T03:55:41;7.95;;;4.93;;
21917;SDS011;11123;49.882;8.662;2022-07-23T03:58:10;8.02;;;5.35;;
21917;SDS011;11123;49.882;8.662;2022-07-23T04:00:39;10.48;;;5.72;;
21917;SDS011;11123;49.882;8.662;2022-07-23T04:03:08;8.60;;;5.68;;
21917;SDS011;11123;49.882;8.662;2022-07-23T04:05:36;8.93;;;5.47;;
21917;SDS011;11123;49.882;8.662;2022-07-23T04:08:06;9.05;;;5.28;;
21917;SDS011;11123;49.882;8.662;2022-07-23T04:10:39;9.88;;;5.63;;
21917;SDS011;11123;49.882;8.662;2022-07-23T04:13:08;10.27;;;4.95;;
21917;SDS011;11123;49.882;8.662;2022-07-23T04:15:36;7.35;;;5.20;;
21917;SDS011;11123;49.882;8.662;2022-07-23T04:18:05;7.57;;;5.10;;
21917;SDS011;11123;49.882;8.662;2022-07-23T04:20:44;8.85;;;5.15;;
21917;SDS011;11123;49.882;8.662;2022-07-23T04:23:12;7.70;;;5.40;;
21917;SDS011;11123;49.882;8.662;2022-07-23T04:25:43;9.13;;;5.05;;
21917;SDS011;11123;49.882;8.662;2022-07-23T04:28:11;8.80;;;5.15;;
21917;SDS011;11123;49.882;8.662;2022-07-23T04:30:41;7.45;;;5.10;;
21917;SDS011;11123;49.882;8.662;2022-07-23T04:33:11;8.52;;;5.22;;
21917;SDS011;11123;49.882;8.662;2022-07-23T04:35:39;7.13;;;5.38;;
21917;SDS011;11123;49.882;8.662;2022-07-23T04:38:15;7.82;;;5.43;;
21917;SDS011;11123;49.882;8.662;2022-07-23T04:40:46;9.52;;;5.00;;
21917;SDS011;11123;49.882;8.662;2022-07-23T04:43:14;8.95;;;5.20;;
21917;SDS011;11123;49.882;8.662;2022-07-23T04:45:48;8.48;;;4.70;;
21917;SDS011;11123;49.882;8.662;2022-07-23T04:48:16;8.73;;;4.82;;
21917;SDS011;11123;49.882;8.662;2022-07-23T04:50:49;6.93;;;4.95;;
21917;SDS011;11123;49.882;8.662;2022-07-23T04:53:21;6.38;;;4.43;;
21917;SDS011;11123;49.882;8.662;2022-07-23T04:55:54;8.43;;;4.90;;
21917;SDS011;11123;49.882;8.662;2022-07-23T04:58:22;7.22;;;5.25;;
21917;SDS011;11123;49.882;8.662;2022-07-23T05:00:51;8.52;;;5.13;;
21917;SDS011;11123;49.882;8.662;2022-07-23T05:03:19;9.25;;;5.47;;
21917;SDS011;11123;49.882;8.662;2022-07-23T05:05:47;9.15;;;5.28;;
21917;SDS011;11123;49.882;8.662;2022-07-23T05:08:17;7.28;;;5.15;;
21917;SDS011;11123;49.882;8.662;2022-07-23T05:10:50;8.45;;;5.30;;
21917;SDS011;11123;49.882;8.662;2022-07-23T05:13:21;9.27;;;5.22;;
21917;SDS011;11123;49.882;8.662;2022-07-23T05:15:51;8.43;;;5.28;;
21917;SDS011;11123;49.882;8.662;2022-07-23T05:18:20;8.15;;;4.80;;
21917;SDS011;11123;49.882;8.662;2022-07-23T05:20:48;6.82;;;4.95;;
21917;SDS011;11123;49.882;8.662;2022-07-23T05:23:19;7.50;;;5.38;;
21917;SDS011;11123;49.882;8.662;2022-07-23T05:25:48;7.10;;;4.93;;
21917;SDS011;11123;49.882;8.662;2022-07-23T05:28:18;8.13;;;5.75;;
21917;SDS011;11123;49.882;8.662;2022-07-23T05:30:50;8.00;;;5.30;;
21917;SDS011;11123;49.882;8.662;2022-07-23T05:33:20;9.30;;;5.32;;
21917;SDS011;11123;49.882;8.662;2022-07-23T05:35:49;7.30;;;5.20;;
21917;SDS011;11123;49.882;8.662;2022-07-23T05:38:25;7.47;;;5.38;;
21917;SDS011;11123;49.882;8.662;2022-07-23T05:40:56;6.95;;;4.85;;
21917;SDS011;11123;49.882;8.662;2022-07-23T05:43:25;7.47;;;5.05;;
21917;SDS011;11123;49.882;8.662;2022-07-23T05:45:55;7.35;;;5.18;;
21917;SDS011;11123;49.882;8.662;2022-07-23T05:48:24;9.70;;;5.28;;
21917;SDS011;11123;49.882;8.662;2022-07-23T05:51:00;8.95;;;5.05;;
21917;SDS011;11123;49.882;8.662;2022-07-23T05:53:31;10.18;;;5.13;;
21917;SDS011;11123;49.882;8.662;2022-07-23T05:56:03;8.45;;;5.47;;
21917;SDS011;11123;49.882;8.662;2022-07-23T05:58:31;7.00;;;5.43;;
21917;SDS011;11123;49.882;8.662;2022-07-23T06:01:02;7.85;;;5.28;;
21917;SDS011;11123;49.882;8.662;2022-07-23T06:03:38;7.35;;;5.25;;
21917;SDS011;11123;49.882;8.662;2022-07-23T06:06:07;8.88;;;5.43;;
21917;SDS011;11123;49.882;8.662;2022-07-23T06:08:36;9.50;;;5.53;;
21917;SDS011;11123;49.882;8.662;2022-07-23T06:11:07;6.63;;;5.20;;
21917;SDS011;11123;49.882;8.662;2022-07-23T06:13:36;11.77;;;5.63;;
21917;SDS011;11123;49.882;8.662;2022-07-23T06:16:05;9.38;;;5.45;;
21917;SDS011;11123;49.882;8.662;2022-07-23T06:18:34;8.20;;;5.57;;
21917;SDS011;11123;49.882;8.662;2022-07-23T06:21:03;8.07;;;5.32;;
21917;SDS011;11123;49.882;8.662;2022-07-23T06:23:51;7.07;;;5.13;;
21917;SDS011;11123;49.882;8.662;2022-07-23T06:26:19;9.75;;;5.80;;
21917;SDS011;11123;49.882;8.662;2022-07-23T06:28:47;8.63;;;5.32;;
21917;SDS011;11123;49.882;8.662;2022-07-23T06:31:17;9.70;;;5.60;;
21917;SDS011;11123;49.882;8.662;2022-07-23T06:33:46;7.85;;;5.60;;
21917;SDS011;11123;49.882;8.662;2022-07-23T06:36:14;9.88;;;5.90;;
21917;SDS011;11123;49.882;8.662;2022-07-23T06:38:42;8.93;;;5.63;;
21917;SDS011;11123;49.882;8.662;2022-07-23T06:41:10;8.82;;;5.47;;
21917;SDS011;11123;49.882;8.662;2022-07-23T06:43:39;9.43;;;5.75;;
21917;SDS011;11123;49.882;8.662;2022-07-23T06:46:08;8.30;;;5.63;;
21917;SDS011;11123;49.882;8.662;2022-07-23T06:48:38;9.45;;;5.60;;
21917;SDS011;11123;49.882;8.662;2022-07-23T06:51:06;8.32;;;5.78;;
21917;SDS011;11123;49.882;8.662;2022-07-23T06:53:35;7.07;;;5.53;;
21917;SDS011;11123;49.882;8.662;2022-07-23T06:56:03;7.13;;;5.35;;
21917;SDS011;11123;49.882;8.662;2022-07-23T06:58:32;9.27;;;5.75;;
21917;SDS011;11123;49.882;8.662;2022-07-23T07:01:00;7.95;;;5.38;;
21917;SDS011;11123;49.882;8.662;2022-07-23T07:03:29;6.57;;;4.82;;
21917;SDS011;11123;49.882;8.662;2022-07-23T07:05:58;7.70;;;5.10;;
21917;SDS011;11123;49.882;8.662;2022-07-23T07:08:27;9.32;;;5.85;;
21917;SDS011;11123;49.882;8.662;2022-07-23T07:10:55;9.90;;;5.75;;
21917;SDS011;11123;49.882;8.662;2022-07-23T07:13:23;8.88;;;5.10;;
21917;SDS011;11123;49.882;8.662;2022-07-23T07:15:51;8.88;;;5.78;;
21917;SDS011;11123;49.882;8.662;2022-07-23T07:18:21;7.78;;;5.25;;
21917;SDS011;11123;49.882;8.662;2022-07-23T07:20:49;9.63;;;5.97;;
21917;SDS011;11123;49.882;8.662;2022-07-23T07:23:23;7.53;;;5.28;;
21917;SDS011;11123;49.882;8.662;2022-07-23T07:25:51;11.10;;;5.65;;
21917;SDS011;11123;49.882;8.662;2022-07-23T07:28:19;9.10;;;5.50;;
21917;SDS011;11123;49.882;8.662;2022-07-23T07:30:48;9.20;;;5.47;;
21917;SDS011;11123;49.882;8.662;2022-07-23T07:33:16;7.78;;;5.40;;
21917;SDS011;11123;49.882;8.662;2022-07-23T07:35:44;7.97;;;5.07;;
21917;SDS011;11123;49.882;8.662;2022-07-23T07:38:12;8.13;;;5.03;;
21917;SDS011;11123;49.882;8.662;2022-07-23T07:40:42;9.18;;;5.47;;
21917;SDS011;11123;49.882;8.662;2022-07-23T07:43:10;7.47;;;5.40;;
21917;SDS011;11123;49.882;8.662;2022-07-23T07:45:38;8.05;;;5.03;;
21917;SDS011;11123;49.882;8.662;2022-07-23T07:48:06;7.22;;;5.13;;
21917;SDS011;11123;49.882;8.662;2022-07-23T07:50:35;8.00;;;5.10;;
21917;SDS011;11123;49.882;8.662;2022-07-23T07:53:03;7.80;;;5.30;;
21917;SDS011;11123;49.882;8.662;2022-07-23T07:55:32;8.80;;;5.55;;
21917;SDS011;11123;49.882;8.662;2022-07-23T07:58:01;9.40;;;5.15;;
21917;SDS011;11123;49.882;8.662;2022-07-23T08:00:30;9.40;;;5.30;;
21917;SDS011;11123;49.882;8.662;2022-07-23T08:02:59;7.45;;;5.25;;
21917;SDS011;11123;49.882;8.662;2022-07-23T08:05:29;8.13;;;5.18;;
21917;SDS011;11123;49.882;8.662;2022-07-23T08:07:58;10.65;;;5.35;;
21917;SDS011;11123;49.882;8.662;2022-07-23T08:10:27;11.18;;;5.20;;
21917;SDS011;11123;49.882;8.662;2022-07-23T08:12:56;8.15;;;5.47;;
21917;SDS011;11123;49.882;8.662;2022-07-23T08:15:27;9.95;;;5.30;;
21917;SDS011;11123;49.882;8.662;2022-07-23T08:17:56;6.70;;;4.55;;
21917;SDS011;11123;49.882;8.662;2022-07-23T08:20:25;8.02;;;5.05;;
21917;SDS011;11123;49.882;8.662;2022-07-23T08:22:55;7.15;;;4.90;;
21917;SDS011;11123;49.882;8.662;2022-07-23T08:25:25;7.68;;;4.95;;
21917;SDS011;11123;49.882;8.662;2022-07-23T08:27:55;8.40;;;4.55;;
21917;SDS011;11123;49.882;8.662;2022-07-23T08:30:23;7.85;;;5.20;;
21917;SDS011;11123;49.882;8.662;2022-07-23T08:32:55;6.90;;;4.45;;
21917;SDS011;11123;49.882;8.662;2022-07-23T08:35:27;8.77;;;4.80;;
21917;SDS011;11123;49.882;8.662;2022-07-23T08:37:57;6.97;;;4.93;;
21917;SDS011;11123;49.882;8.662;2022-07-23T08:40:26;7.47;;;4.75;;
21917;SDS011;11123;49.882;8.662;2022-07-23T08:42:56;7.15;;;4.90;;
21917;SDS011;11123;49.882;8.662;2022-07-23T08:45:24;8.00;;;4.63;;
21917;SDS011;11123;49.882;8.662;2022-07-23T08:47:56;8.25;;;4.60;;
21917;SDS011;11123;49.882;8.662;2022-07-23T08:50:28;5.80;;;4.40;;
21917;SDS011;11123;49.882;8.662;2022-07-23T08:52:57;6.20;;;4.22;;
21917;SDS011;11123;49.882;8.662;2022-07-23T08:55:29;7.53;;;4.55;;
21917;SDS011;11123;49.882;8.662;2022-07-23T08:57:57;7.55;;;4.20;;
21917;SDS011;11123;49.882;8.662;2022-07-23T09:00:25;7.40;;;4.43;;
21917;SDS011;11123;49.882;8.662;2022-07-23T09:02:55;8.70;;;4.72;;
21917;SDS011;11123;49.882;8.662;2022-07-23T09:05:23;10.88;;;4.88;;
21917;SDS011;11123;49.882;8.662;2022-07-23T09:10:46;6.63;;;4.70;;
21917;SDS011;11123;49.882;8.662;2022-07-23T09:13:31;8.45;;;4.80;;
21917;SDS011;11123;49.882;8.662;2022-07-23T09:16:06;7.63;;;4.88;;
21917;SDS011;11123;49.882;8.662;2022-07-23T09:18:39;6.75;;;4.65;;
21917;SDS011;11123;49.882;8.662;2022-07-23T09:21:17;7.88;;;4.55;;
21917;SDS011;11123;49.882;8.662;2022-07-23T09:23:49;8.38;;;4.80;;
21917;SDS011;11123;49.882;8.662;2022-07-23T09:29:12;7.38;;;4.60;;
21917;SDS011;11123;49.882;8.662;2022-07-23T09:31:47;6.85;;;4.32;;
21917;SDS011;11123;49.882;8.662;2022-07-23T09:34:19;6.65;;;4.70;;
21917;SDS011;11123;49.882;8.662;2022-07-23T09:36:50;7.30;;;4.22;;
21917;SDS011;11123;49.882;8.662;2022-07-23T09:39:25;5.78;;;4.20;;
21917;SDS011;11123;49.882;8.662;2022-07-23T09:41:55;5.53;;;4.03;;
21917;SDS011;11123;49.882;8.662;2022-07-23T09:44:24;7.10;;;4.60;;
21917;SDS011;11123;49.882;8.662;2022-07-23T09:46:57;6.43;;;4.40;;
21917;SDS011;11123;49.882;8.662;2022-07-23T09:49:29;6.10;;;4.50;;
21917;SDS011;11123;49.882;8.662;2022-07-23T09:51:57;7.20;;;4.32;;
21917;SDS011;11123;49.882;8.662;2022-07-23T09:54:32;6.80;;;4.28;;
21917;SDS011;11123;49.882;8.662;2022-07-23T09:57:03;8.13;;;3.90;;
21917;SDS011;11123;49.882;8.662;2022-07-23T09:59:35;9.13;;;4.70;;
21917;SDS011;11123;49.882;8.662;2022-07-23T10:02:04;6.13;;;4.32;;
21917;SDS011;11123;49.882;8.662;2022-07-23T10:04:47;6.78;;;4.28;;
21917;SDS011;11123;49.882;8.662;2022-07-23T10:07:23;10.30;;;4.60;;
21917;SDS011;11123;49.882;8.662;2022-07-23T10:10:14;7.45;;;4.10;;
21917;SDS011;11123;49.882;8.662;2022-07-23T10:13:03;6.80;;;4.40;;
21917;SDS011;11123;49.882;8.662;2022-07-23T10:15:49;8.02;;;4.35;;
21917;SDS011;11123;49.882;8.662;2022-07-23T10:18:18;7.25;;;4.80;;
21917;SDS011;11123;49.882;8.662;2022-07-23T10:20:48;5.97;;;4.05;;
21917;SDS011;11123;49.882;8.662;2022-07-23T10:23:18;7.13;;;4.30;;
21917;SDS011;11123;49.882;8.662;2022-07-23T10:25:54;6.13;;;4.45;;
21917;SDS011;11123;49.882;8.662;2022-07-23T10:28:30;6.93;;;4.40;;
21917;SDS011;11123;49.882;8.662;2022-07-23T10:31:17;6.68;;;4.28;;
21917;SDS011;11123;49.882;8.662;2022-07-23T10:34:17;6.38;;;4.10;;
21917;SDS011;11123;49.882;8.662;2022-07-23T10:36:53;6.97;;;4.45;;
21917;SDS011;11123;49.882;8.662;2022-07-23T10:39:26;7.72;;;4.22;;
21917;SDS011;11123;49.882;8.662;2022-07-23T10:42:07;7.10;;;4.70;;
21917;SDS011;11123;49.882;8.662;2022-07-23T10:44:41;6.40;;;4.30;;
21917;SDS011;11123;49.882;8.662;2022-07-23T10:47:12;6.35;;;3.92;;
21917;SDS011;11123;49.882;8.662;2022-07-23T10:50:18;8.13;;;4.47;;
21917;SDS011;11123;49.882;8.662;2022-07-23T10:53:14;7.65;;;4.35;;
21917;SDS011;11123;49.882;8.662;2022-07-23T10:55:45;7.18;;;4.68;;
21917;SDS011;11123;49.882;8.662;2022-07-23T10:58:20;6.53;;;4.00;;
21917;SDS011;11123;49.882;8.662;2022-07-23T11:00:50;6.97;;;5.03;;
21917;SDS011;11123;49.882;8.662;2022-07-23T11:06:05;6.93;;;4.43;;
21917;SDS011;11123;49.882;8.662;2022-07-23T11:08:35;8.90;;;4.32;;
21917;SDS011;11123;49.882;8.662;2022-07-23T11:11:09;9.85;;;4.80;;
21917;SDS011;11123;49.882;8.662;2022-07-23T11:13:39;9.90;;;4.50;;
21917;SDS011;11123;49.882;8.662;2022-07-23T11:16:16;9.05;;;4.78;;
21917;SDS011;11123;49.882;8.662;2022-07-23T11:21:42;10.38;;;4.60;;
21917;SDS011;11123;49.882;8.662;2022-07-23T11:24:13;8.80;;;4.50;;
21917;SDS011;11123;49.882;8.662;2022-07-23T11:26:45;6.82;;;5.13;;
21917;SDS011;11123;49.882;8.662;2022-07-23T11:29:39;7.18;;;4.80;;
21917;SDS011;11123;49.882;8.662;2022-07-23T11:35:20;6.47;;;4.60;;
21917;SDS011;11123;49.882;8.662;2022-07-23T11:37:50;6.85;;;4.57;;
21917;SDS011;11123;49.882;8.662;2022-07-23T11:40:26;8.38;;;4.35;;
21917;SDS011;11123;49.882;8.662;2022-07-23T11:42:56;7.97;;;4.45;;
21917;SDS011;11123;49.882;8.662;2022-07-23T11:45:29;9.48;;;4.75;;
21917;SDS011;11123;49.882;8.662;2022-07-23T11:48:00;6.57;;;4.63;;
21917;SDS011;11123;49.882;8.662;2022-07-23T11:50:29;11.93;;;5.13;;
21917;SDS011;11123;49.882;8.662;2022-07-23T11:52:58;8.75;;;5.20;;
21917;SDS011;11123;49.882;8.662;2022-07-23T11:55:27;7.13;;;4.93;;
21917;SDS011;11123;49.882;8.662;2022-07-23T11:57:56;8.02;;;4.68;;
21917;SDS011;11123;49.882;8.662;2022-07-23T12:00:27;7.72;;;4.85;;
21917;SDS011;11123;49.882;8.662;2022-07-23T12:02:57;6.97;;;4.80;;
21917;SDS011;11123;49.882;8.662;2022-07-23T12:05:28;8.25;;;4.85;;
21917;SDS011;11123;49.882;8.662;2022-07-23T12:07:58;7.50;;;5.10;;
21917;SDS011;11123;49.882;8.662;2022-07-23T12:10:29;7.35;;;4.88;;
21917;SDS011;11123;49.882;8.662;2022-07-23T12:13:02;9.50;;;4.60;;
21917;SDS011;11123;49.882;8.662;2022-07-23T12:15:32;6.22;;;4.20;;
21917;SDS011;11123;49.882;8.662;2022-07-23T12:18:04;7.30;;;4.88;;
21917;SDS011;11123;49.882;8.662;2022-07-23T12:20:34;8.35;;;4.43;;
21917;SDS011;11123;49.882;8.662;2022-07-23T12:23:05;5.97;;;4.45;;
21917;SDS011;11123;49.882;8.662;2022-07-23T12:25:36;8.20;;;4.53;;
21917;SDS011;11123;49.882;8.662;2022-07-23T12:28:07;8.18;;;4.80;;
21917;SDS011;11123;49.882;8.662;2022-07-23T12:30:37;7.53;;;4.55;;
21917;SDS011;11123;49.882;8.662;2022-07-23T12:33:07;5.68;;;4.38;;
21917;SDS011;11123;49.882;8.662;2022-07-23T12:35:38;8.43;;;4.60;;
21917;SDS011;11123;49.882;8.662;2022-07-23T12:38:08;6.93;;;4.53;;
21917;SDS011;11123;49.882;8.662;2022-07-23T12:40:43;5.28;;;4.20;;
21917;SDS011;11123;49.882;8.662;2022-07-23T12:43:18;5.32;;;4.30;;
21917;SDS011;11123;49.882;8.662;2022-07-23T12:45:49;7.10;;;4.70;;
21917;SDS011;11123;49.882;8.662;2022-07-23T12:48:19;5.88;;;4.60;;
21917;SDS011;11123;49.882;8.662;2022-07-23T12:50:53;7.85;;;4.40;;
21917;SDS011;11123;49.882;8.662;2022-07-23T12:53:25;5.38;;;4.15;;
21917;SDS011;11123;49.882;8.662;2022-07-23T12:56:04;7.32;;;4.65;;
21917;SDS011;11123;49.882;8.662;2022-07-23T12:58:42;5.93;;;4.68;;
21917;SDS011;11123;49.882;8.662;2022-07-23T13:01:22;6.90;;;4.50;;
21917;SDS011;11123;49.882;8.662;2022-07-23T13:03:58;7.30;;;4.50;;
21917;SDS011;11123;49.882;8.662;2022-07-23T13:06:28;6.18;;;4.80;;
21917;SDS011;11123;49.882;8.662;2022-07-23T13:08:58;6.15;;;4.57;;
21917;SDS011;11123;49.882;8.662;2022-07-23T13:11:30;9.10;;;4.50;;
21917;SDS011;11123;49.882;8.662;2022-07-23T13:13:59;6.32;;;4.43;;
21917;SDS011;11123;49.882;8.662;2022-07-23T13:16:28;5.63;;;4.35;;
21917;SDS011;11123;49.882;8.662;2022-07-23T13:18:58;6.03;;;4.40;;
21917;SDS011;11123;49.882;8.662;2022-07-23T13:21:28;9.18;;;4.90;;
21917;SDS011;11123;49.882;8.662;2022-07-23T13:23:56;7.32;;;4.78;;
21917;SDS011;11123;49.882;8.662;2022-07-23T13:26:25;6.82;;;4.40;;
21917;SDS011;11123;49.882;8.662;2022-07-23T13:28:55;8.85;;;4.25;;
21917;SDS011;11123;49.882;8.662;2022-07-23T13:31:28;7.85;;;4.15;;
21917;SDS011;11123;49.882;8.662;2022-07-23T13:33:56;6.72;;;4.13;;
21917;SDS011;11123;49.882;8.662;2022-07-23T13:36:25;6.85;;;4.30;;
21917;SDS011;11123;49.882;8.662;2022-07-23T13:38:53;7.35;;;4.40;;
21917;SDS011;11123;49.882;8.662;2022-07-23T13:41:21;6.80;;;4.00;;
21917;SDS011;11123;49.882;8.662;2022-07-23T13:43:51;7.93;;;4.60;;
21917;SDS011;11123;49.882;8.662;2022-07-23T13:46:20;5.65;;;4.47;;
21917;SDS011;11123;49.882;8.662;2022-07-23T13:48:50;5.70;;;4.38;;
21917;SDS011;11123;49.882;8.662;2022-07-23T13:51:18;7.57;;;4.55;;
21917;SDS011;11123;49.882;8.662;2022-07-23T13:53:47;6.53;;;4.07;;
21917;SDS011;11123;49.882;8.662;2022-07-23T13:56:16;5.57;;;4.22;;
21917;SDS011;11123;49.882;8.662;2022-07-23T13:58:44;7.85;;;4.50;;
21917;SDS011;11123;49.882;8.662;2022-07-23T14:01:12;8.18;;;4.47;;
21917;SDS011;11123;49.882;8.662;2022-07-23T14:03:42;6.70;;;4.38;;
21917;SDS011;11123;49.882;8.662;2022-07-23T14:06:11;6.50;;;4.32;;
21917;SDS011;11123;49.882;8.662;2022-07-23T14:08:42;6.13;;;4.50;;
21917;SDS011;11123;49.882;8.662;2022-07-23T14:11:11;8.45;;;4.60;;
21917;SDS011;11123;49.882;8.662;2022-07-23T14:13:39;6.63;;;4.47;;
21917;SDS011;11123;49.882;8.662;2022-07-23T14:16:07;9.05;;;4.18;;
21917;SDS011;11123;49.882;8.662;2022-07-23T14:18:36;5.90;;;4.10;;
21917;SDS011;11123;49.882;8.662;2022-07-23T14:21:05;6.03;;;4.13;;
21917;SDS011;11123;49.882;8.662;2022-07-23T14:23:34;6.50;;;4.30;;
21917;SDS011;11123;49.882;8.662;2022-07-23T14:26:05;7.57;;;4.40;;
21917;SDS011;11123;49.882;8.662;2022-07-23T14:28:33;7.53;;;4.20;;
21917;SDS011;11123;49.882;8.662;2022-07-23T14:31:02;7.72;;;4.10;;
21917;SDS011;11123;49.882;8.662;2022-07-23T14:33:31;5.60;;;3.95;;
21917;SDS011;11123;49.882;8.662;2022-07-23T14:36:00;5.90;;;4.10;;
21917;SDS011;11123;49.882;8.662;2022-07-23T14:38:30;7.63;;;4.25;;
21917;SDS011;11123;49.882;8.662;2022-07-23T14:40:59;6.65;;;4.40;;
21917;SDS011;11123;49.882;8.662;2022-07-23T14:43:27;6.45;;;4.03;;
21917;SDS011;11123;49.882;8.662;2022-07-23T14:45:55;7.68;;;4.53;;
21917;SDS011;11123;49.882;8.662;2022-07-23T14:48:23;7.03;;;4.20;;
21917;SDS011;11123;49.882;8.662;2022-07-23T14:50:53;5.45;;;4.15;;
21917;SDS011;11123;49.882;8.662;2022-07-23T14:53:22;8.82;;;4.15;;
21917;SDS011;11123;49.882;8.662;2022-07-23T14:55:52;7.70;;;4.10;;
21917;SDS011;11123;49.882;8.662;2022-07-23T14:58:22;5.60;;;4.00;;
21917;SDS011;11123;49.882;8.662;2022-07-23T15:00:51;7.82;;;4.28;;
21917;SDS011;11123;49.882;8.662;2022-07-23T15:03:19;6.45;;;4.05;;
21917;SDS011;11123;49.882;8.662;2022-07-23T15:05:47;6.57;;;4.05;;
21917;SDS011;11123;49.882;8.662;2022-07-23T15:08:16;6.75;;;4.35;;
21917;SDS011;11123;49.882;8.662;2022-07-23T15:10:49;6.95;;;4.38;;
21917;SDS011;11123;49.882;8.662;2022-07-23T15:13:19;7.78;;;4.45;;
21917;SDS011;11123;49.882;8.662;2022-07-23T15:15:47;7.80;;;4.78;;
21917;SDS011;11123;49.882;8.662;2022-07-23T15:18:21;5.97;;;4.30;;
21917;SDS011;11123;49.882;8.662;2022-07-23T15:20:50;5.00;;;3.95;;
21917;SDS011;11123;49.882;8.662;2022-07-23T15:23:18;7.18;;;4.25;;